createdAt,value
2017-08-20T00:02:21.594Z,14.60
2017-08-20T00:04:49.034Z,14.60
2017-08-20T00:07:16.484Z,14.60
2017-08-20T00:09:43.977Z,14.50
2017-08-20T00:12:11.426Z,14.50
2017-08-20T00:14:38.863Z,14.40
2017-08-20T00:17:06.319Z,14.40
2017-08-20T00:19:33.810Z,14.40
2017-08-20T00:22:01.267Z,14.40
2017-08-20T00:24:28.712Z,14.30
2017-08-20T00:26:56.175Z,14.30
2017-08-20T00:29:23.735Z,14.20
2017-08-20T00:31:51.269Z,14.10
2017-08-20T00:34:18.702Z,14.10
2017-08-20T00:36:46.195Z,14.00
2017-08-20T00:39:13.762Z,14.00
2017-08-20T00:41:41.198Z,14.00
2017-08-20T00:44:08.667Z,14.00
2017-08-20T00:46:36.125Z,13.90
2017-08-20T00:49:03.596Z,14.00
2017-08-20T00:51:31.039Z,13.90
2017-08-20T00:53:58.504Z,13.90
2017-08-20T00:56:25.946Z,13.90
2017-08-20T00:58:53.411Z,13.90
2017-08-20T01:01:21.610Z,13.90
2017-08-20T01:03:49.110Z,13.80
2017-08-20T01:06:16.556Z,13.90
2017-08-20T01:08:44.003Z,13.90
2017-08-20T01:11:12.282Z,13.90
2017-08-20T01:13:39.766Z,13.80
2017-08-20T01:16:07.383Z,13.90
2017-08-20T01:18:34.826Z,14.00
2017-08-20T01:21:02.302Z,14.00
2017-08-20T01:23:29.738Z,13.90
2017-08-20T01:25:57.313Z,13.90
2017-08-20T01:28:24.743Z,14.00
2017-08-20T01:30:52.234Z,13.90
2017-08-20T01:33:19.662Z,14.00
2017-08-20T01:35:47.126Z,14.00
2017-08-20T01:38:14.602Z,14.00
2017-08-20T01:40:42.054Z,13.90
2017-08-20T01:43:09.487Z,13.90
2017-08-20T01:45:36.998Z,13.90
2017-08-20T01:48:05.187Z,13.90
2017-08-20T01:50:32.676Z,13.90
2017-08-20T01:53:00.103Z,13.90
2017-08-20T01:55:27.592Z,13.90
2017-08-20T01:57:55.015Z,13.90
2017-08-20T02:00:22.491Z,14.00
2017-08-20T02:02:49.950Z,13.90
2017-08-20T02:05:17.427Z,13.90
2017-08-20T02:07:44.958Z,14.00
2017-08-20T02:10:12.418Z,13.90
2017-08-20T02:12:39.874Z,13.90
2017-08-20T02:15:07.306Z,13.90
2017-08-20T02:17:34.745Z,13.80
2017-08-20T02:20:02.353Z,13.80
2017-08-20T02:22:29.785Z,13.80
2017-08-20T02:24:57.276Z,13.70
2017-08-20T02:27:24.714Z,13.70
2017-08-20T02:29:52.165Z,13.60
2017-08-20T02:32:19.632Z,13.60
2017-08-20T02:34:47.290Z,13.60
2017-08-20T02:37:14.753Z,13.60
2017-08-20T02:39:42.209Z,13.60
2017-08-20T02:42:09.664Z,13.50
2017-08-20T02:44:37.119Z,13.50
2017-08-20T02:47:04.561Z,13.50
2017-08-20T02:49:32.007Z,13.50
2017-08-20T02:51:59.488Z,13.50
2017-08-20T02:54:26.938Z,13.40
2017-08-20T02:56:54.379Z,13.40
2017-08-20T02:59:21.870Z,13.40
2017-08-20T03:01:49.319Z,13.40
2017-08-20T03:04:16.781Z,13.40
2017-08-20T03:06:44.230Z,13.40
2017-08-20T03:09:11.662Z,13.40
2017-08-20T03:11:39.149Z,13.50
2017-08-20T03:14:06.609Z,13.40
2017-08-20T03:16:34.055Z,13.40
2017-08-20T03:19:01.504Z,13.50
2017-08-20T03:21:28.943Z,13.50
2017-08-20T03:23:56.407Z,13.50
2017-08-20T03:26:23.978Z,13.50
2017-08-20T03:28:51.415Z,13.50
2017-08-20T03:31:18.907Z,13.40
2017-08-20T03:33:46.347Z,13.40
2017-08-20T03:36:13.889Z,13.40
2017-08-20T03:38:41.311Z,13.40
2017-08-20T03:41:08.806Z,13.40
2017-08-20T03:43:36.233Z,13.30
2017-08-20T03:46:03.711Z,13.30
2017-08-20T03:48:31.158Z,13.30
2017-08-20T03:50:58.618Z,13.20
2017-08-20T03:53:26.087Z,13.20
2017-08-20T03:55:53.518Z,13.20
2017-08-20T03:58:20.976Z,13.20
2017-08-20T04:00:48.422Z,13.20
2017-08-20T04:03:15.882Z,13.20
2017-08-20T04:05:43.359Z,13.20
2017-08-20T04:08:10.799Z,13.20
2017-08-20T04:10:38.334Z,13.20
2017-08-20T04:13:05.917Z,13.10
2017-08-20T04:15:33.362Z,13.10
2017-08-20T04:18:00.855Z,13.10
2017-08-20T04:20:28.296Z,13.10
2017-08-20T04:22:55.840Z,13.10
2017-08-20T04:25:23.263Z,13.10
2017-08-20T04:27:50.853Z,13.10
2017-08-20T04:30:18.289Z,13.10
2017-08-20T04:32:45.758Z,13.10
2017-08-20T04:35:13.219Z,13.10
2017-08-20T04:37:40.659Z,13.10
2017-08-20T04:40:08.098Z,13.10
2017-08-20T04:42:35.603Z,13.10
2017-08-20T04:45:03.049Z,13.10
2017-08-20T04:47:30.497Z,13.10
2017-08-20T04:49:57.986Z,13.10
2017-08-20T04:52:25.528Z,13.20
2017-08-20T04:54:52.971Z,13.20
2017-08-20T04:57:20.443Z,13.20
2017-08-20T04:59:47.888Z,13.20
2017-08-20T05:02:15.344Z,13.30
2017-08-20T05:04:42.902Z,13.30
2017-08-20T05:07:10.338Z,13.30
2017-08-20T05:09:37.784Z,13.30
2017-08-20T05:12:05.263Z,13.30
2017-08-20T05:14:32.709Z,13.30
2017-08-20T05:17:00.338Z,13.40
2017-08-20T05:19:28.563Z,13.40
2017-08-20T05:21:56.024Z,13.40
2017-08-20T05:24:23.476Z,13.50
2017-08-20T05:26:50.939Z,13.50
2017-08-20T05:29:18.366Z,13.50
2017-08-20T05:31:45.842Z,13.50
2017-08-20T05:34:14.239Z,13.60
2017-08-20T05:36:41.886Z,13.60
2017-08-20T05:39:09.338Z,13.60
2017-08-20T05:41:36.793Z,13.60
2017-08-20T05:44:04.218Z,13.70
2017-08-20T05:46:31.715Z,13.70
2017-08-20T05:48:59.147Z,13.60
2017-08-20T05:51:26.617Z,13.60
2017-08-20T05:53:54.066Z,13.60
2017-08-20T05:56:21.519Z,13.70
2017-08-20T05:58:48.968Z,13.80
2017-08-20T06:01:16.457Z,13.80
2017-08-20T06:03:43.889Z,13.80
2017-08-20T06:06:11.331Z,13.90
2017-08-20T06:08:38.770Z,13.90
2017-08-20T06:11:06.267Z,13.90
2017-08-20T06:13:33.745Z,13.90
2017-08-20T06:16:01.234Z,13.90
2017-08-20T06:18:28.757Z,14.00
2017-08-20T06:20:56.443Z,14.00
2017-08-20T06:23:24.679Z,14.10
2017-08-20T06:25:52.235Z,14.10
2017-08-20T06:28:19.713Z,14.20
2017-08-20T06:30:47.279Z,14.30
2017-08-20T06:33:15.536Z,14.40
2017-08-20T06:35:42.990Z,14.30
2017-08-20T06:38:10.451Z,14.40
2017-08-20T06:40:37.889Z,14.50
2017-08-20T06:43:05.340Z,14.50
2017-08-20T06:45:32.777Z,14.70
2017-08-20T06:48:00.285Z,14.80
2017-08-20T06:50:27.726Z,14.80
2017-08-20T06:52:55.176Z,14.80
2017-08-20T06:55:22.606Z,14.90
2017-08-20T06:57:50.121Z,15.00
2017-08-20T07:00:17.755Z,15.00
2017-08-20T07:02:45.315Z,15.00
2017-08-20T07:05:12.866Z,15.10
2017-08-20T07:07:40.318Z,15.10
2017-08-20T07:10:07.795Z,15.10
2017-08-20T07:12:35.246Z,15.20
2017-08-20T07:15:02.695Z,15.30
2017-08-20T07:17:30.160Z,15.30
2017-08-20T07:19:57.585Z,15.40
2017-08-20T07:22:25.068Z,15.40
2017-08-20T07:24:52.516Z,15.60
2017-08-20T07:27:19.941Z,15.60
2017-08-20T07:29:47.407Z,15.70
2017-08-20T07:32:14.899Z,15.80
2017-08-20T07:34:42.438Z,15.90
2017-08-20T07:37:09.875Z,16.00
2017-08-20T07:39:37.347Z,15.90
2017-08-20T07:42:05.768Z,15.90
2017-08-20T07:44:34.019Z,16.10
2017-08-20T07:47:01.446Z,16.00
2017-08-20T07:49:28.954Z,16.20
2017-08-20T07:51:56.479Z,16.20
2017-08-20T07:54:23.910Z,16.10
2017-08-20T07:56:51.336Z,16.10
2017-08-20T07:59:19.569Z,16.20
2017-08-20T08:01:47.023Z,16.10
2017-08-20T08:04:14.474Z,16.20
2017-08-20T08:06:41.931Z,16.30
2017-08-20T08:09:09.387Z,16.20
2017-08-20T08:11:36.968Z,16.30
2017-08-20T08:14:04.404Z,16.40
2017-08-20T08:16:31.854Z,16.50
2017-08-20T08:18:59.326Z,16.50
2017-08-20T08:21:26.757Z,16.50
2017-08-20T08:23:54.194Z,16.60
2017-08-20T08:26:21.703Z,16.70
2017-08-20T08:28:49.151Z,16.80
2017-08-20T08:31:16.682Z,16.90
2017-08-20T08:33:44.111Z,16.90
2017-08-20T08:36:11.569Z,16.90
2017-08-20T08:38:39.070Z,17.00
2017-08-20T08:41:06.536Z,17.00
2017-08-20T08:43:33.995Z,17.10
2017-08-20T08:46:01.544Z,17.30
2017-08-20T08:48:28.975Z,17.30
2017-08-20T08:50:56.467Z,17.30
2017-08-20T08:53:23.910Z,17.20
2017-08-20T08:55:51.335Z,17.30
2017-08-20T08:58:18.774Z,17.40
2017-08-20T09:00:46.234Z,17.40
2017-08-20T09:03:13.719Z,17.50
2017-08-20T09:05:41.161Z,17.50
2017-08-20T09:08:08.602Z,17.60
2017-08-20T09:10:36.030Z,17.90
2017-08-20T09:13:04.304Z,17.90
2017-08-20T09:15:31.721Z,17.80
2017-08-20T09:17:59.196Z,18.00
2017-08-20T09:20:26.653Z,18.10
2017-08-20T09:22:54.104Z,18.10
2017-08-20T09:25:21.529Z,18.20
2017-08-20T09:27:49.016Z,18.40
2017-08-20T09:30:16.475Z,18.50
2017-08-20T09:32:43.939Z,18.50
2017-08-20T09:35:11.368Z,18.60
2017-08-20T09:37:38.846Z,18.40
2017-08-20T09:40:06.307Z,18.40
2017-08-20T09:42:33.743Z,18.50
2017-08-20T09:45:01.225Z,18.50
2017-08-20T09:47:28.678Z,18.40
2017-08-20T09:49:56.120Z,18.40
2017-08-20T09:52:23.678Z,18.60
2017-08-20T09:54:51.135Z,18.80
2017-08-20T09:57:18.692Z,19.00
2017-08-20T09:59:46.171Z,19.00
2017-08-20T10:02:13.707Z,18.90
2017-08-20T10:04:41.188Z,18.70
2017-08-20T10:07:08.728Z,18.60
2017-08-20T10:09:36.158Z,18.60
2017-08-20T10:12:04.467Z,18.80
2017-08-20T10:14:31.895Z,19.00
2017-08-20T10:16:59.331Z,19.10
2017-08-20T10:19:26.763Z,19.10
2017-08-20T10:21:54.983Z,18.60
2017-08-20T10:24:22.428Z,18.60
2017-08-20T10:26:49.910Z,18.50
2017-08-20T10:29:17.387Z,18.70
2017-08-20T10:31:44.938Z,18.80
2017-08-20T10:34:12.362Z,19.10
2017-08-20T10:36:39.905Z,19.30
2017-08-20T10:39:07.389Z,19.30
2017-08-20T10:41:34.867Z,19.30
2017-08-20T10:44:02.322Z,19.30
2017-08-20T10:46:29.753Z,19.30
2017-08-20T10:48:57.222Z,19.20
2017-08-20T10:51:24.678Z,18.90
2017-08-20T10:53:52.124Z,18.50
2017-08-20T10:56:19.596Z,18.10
2017-08-20T10:58:47.038Z,17.60
2017-08-20T11:01:14.485Z,17.00
2017-08-20T11:03:41.959Z,16.60
2017-08-20T11:06:09.414Z,16.30
2017-08-20T11:08:36.880Z,16.10
2017-08-20T11:11:04.346Z,16.00
2017-08-20T11:13:31.806Z,16.00
2017-08-20T11:15:59.272Z,15.90
2017-08-20T11:18:26.731Z,15.90
2017-08-20T11:20:54.198Z,16.00
2017-08-20T11:23:22.469Z,16.30
2017-08-20T11:25:49.986Z,16.20
2017-08-20T11:28:17.439Z,16.50
2017-08-20T11:30:44.879Z,16.60
2017-08-20T11:33:12.354Z,16.70
2017-08-20T11:35:39.788Z,16.80
2017-08-20T11:38:07.283Z,16.70
2017-08-20T11:40:34.722Z,16.90
2017-08-20T11:43:02.267Z,17.00
2017-08-20T11:45:29.755Z,17.10
2017-08-20T11:47:57.330Z,17.10
2017-08-20T11:50:25.546Z,17.00
2017-08-20T11:52:53.035Z,16.90
2017-08-20T11:55:20.487Z,17.20
2017-08-20T11:57:47.944Z,17.40
2017-08-20T12:00:15.500Z,17.70
2017-08-20T12:02:43.166Z,17.90
2017-08-20T12:05:10.656Z,18.10
2017-08-20T12:07:38.994Z,18.10
2017-08-20T12:10:06.450Z,18.10
2017-08-20T12:12:34.019Z,17.80
2017-08-20T12:15:01.578Z,17.80
2017-08-20T12:17:29.126Z,18.00
2017-08-20T12:19:56.598Z,18.10
2017-08-20T12:22:24.047Z,18.10
2017-08-20T12:24:51.486Z,18.20
2017-08-20T12:27:18.958Z,18.30
2017-08-20T12:29:46.410Z,18.30
2017-08-20T12:32:13.847Z,18.30
2017-08-20T12:34:44.125Z,18.20
2017-08-20T12:37:11.647Z,18.10
2017-08-20T12:39:39.223Z,18.10
2017-08-20T12:42:06.780Z,18.10
2017-08-20T12:44:34.246Z,18.10
2017-08-20T12:47:01.707Z,18.10
2017-08-20T12:49:29.318Z,18.10
2017-08-20T12:51:56.828Z,18.10
2017-08-20T12:54:25.023Z,18.00
2017-08-20T12:56:52.546Z,17.90
2017-08-20T12:59:20.002Z,18.00
2017-08-20T13:01:47.442Z,18.10
2017-08-20T13:04:14.895Z,18.20
2017-08-20T13:06:42.396Z,18.10
2017-08-20T13:09:10.599Z,18.20
2017-08-20T13:11:38.048Z,18.10
2017-08-20T13:14:05.624Z,18.00
2017-08-20T13:16:33.075Z,18.00
2017-08-20T13:19:00.534Z,18.00
2017-08-20T13:21:28.015Z,17.90
2017-08-20T13:23:55.441Z,18.00
2017-08-20T13:26:22.914Z,18.10
2017-08-20T13:28:50.412Z,18.10
2017-08-20T13:31:17.844Z,18.10
2017-08-20T13:33:45.294Z,18.20
2017-08-20T13:36:12.788Z,18.30
2017-08-20T13:38:41.069Z,18.60
2017-08-20T13:41:09.346Z,18.80
2017-08-20T13:43:37.576Z,18.90
2017-08-20T13:46:05.016Z,18.80
2017-08-20T13:48:32.540Z,19.00
2017-08-20T13:51:00.738Z,18.90
2017-08-20T13:53:28.198Z,18.80
2017-08-20T13:55:55.651Z,18.60
2017-08-20T13:58:23.110Z,18.50
2017-08-20T14:00:50.576Z,18.50
2017-08-20T14:03:18.061Z,18.50
2017-08-20T14:05:45.504Z,18.60
2017-08-20T14:08:12.951Z,18.70
2017-08-20T14:10:40.424Z,18.70
2017-08-20T14:13:07.877Z,18.70
2017-08-20T14:15:35.335Z,18.60
2017-08-20T14:18:02.829Z,18.60
2017-08-20T14:20:31.044Z,18.70
2017-08-20T14:22:58.482Z,18.70
2017-08-20T14:25:25.926Z,18.90
2017-08-20T14:27:53.378Z,19.10
2017-08-20T14:30:21.599Z,19.20
2017-08-20T14:32:49.080Z,19.20
2017-08-20T14:35:16.514Z,19.10
2017-08-20T14:37:43.958Z,19.00
2017-08-20T14:40:11.428Z,18.80
2017-08-20T14:42:38.974Z,18.80
2017-08-20T14:45:06.443Z,18.80
2017-08-20T14:47:33.891Z,18.90
2017-08-20T14:50:01.407Z,18.70
2017-08-20T14:52:28.835Z,18.60
2017-08-20T14:54:56.403Z,18.30
2017-08-20T14:57:24.608Z,18.20
2017-08-20T14:59:52.204Z,18.20
2017-08-20T15:02:19.665Z,18.20
2017-08-20T15:04:47.183Z,18.10
2017-08-20T15:07:14.650Z,18.20
2017-08-20T15:09:42.123Z,18.10
2017-08-20T15:12:09.579Z,18.30
2017-08-20T15:14:37.119Z,18.20
2017-08-20T15:17:04.577Z,18.10
2017-08-20T15:19:32.006Z,18.10
2017-08-20T15:21:59.493Z,18.00
2017-08-20T15:24:26.921Z,18.00
2017-08-20T15:26:54.484Z,18.00
2017-08-20T15:29:21.928Z,18.20
2017-08-20T15:31:50.147Z,18.80
2017-08-20T15:34:17.586Z,18.80
2017-08-20T15:36:45.074Z,18.80
2017-08-20T15:39:12.723Z,18.50
2017-08-20T15:41:40.164Z,18.40
2017-08-20T15:44:07.594Z,18.30
2017-08-20T15:46:35.055Z,18.30
2017-08-20T15:49:02.495Z,18.60
2017-08-20T15:51:30.700Z,18.60
2017-08-20T15:53:58.146Z,18.60
2017-08-20T15:56:25.590Z,18.90
2017-08-20T15:58:53.043Z,19.70
2017-08-20T16:01:21.376Z,20.80
2017-08-20T16:03:48.810Z,20.80
2017-08-20T16:06:16.248Z,20.40
2017-08-20T16:08:43.750Z,19.90
2017-08-20T16:11:11.181Z,19.50
2017-08-20T16:13:39.299Z,19.30
2017-08-20T16:16:06.742Z,18.90
2017-08-20T16:18:34.290Z,18.70
2017-08-20T16:21:01.764Z,18.60
2017-08-20T16:23:29.221Z,18.40
2017-08-20T16:25:56.758Z,18.30
2017-08-20T16:28:24.206Z,18.30
2017-08-20T16:30:51.640Z,18.40
2017-08-20T16:33:19.118Z,18.40
2017-08-20T16:35:46.579Z,18.50
2017-08-20T16:38:14.022Z,18.50
2017-08-20T16:40:41.500Z,18.20
2017-08-20T16:43:09.007Z,18.10
2017-08-20T16:45:36.618Z,18.00
2017-08-20T16:48:04.051Z,18.10
2017-08-20T16:50:31.510Z,18.00
2017-08-20T16:52:58.986Z,17.90
2017-08-20T16:55:26.470Z,17.90
2017-08-20T16:57:54.011Z,18.10
2017-08-20T17:00:21.472Z,18.20
2017-08-20T17:02:49.010Z,18.30
2017-08-20T17:05:16.475Z,18.70
2017-08-20T17:07:43.909Z,18.40
2017-08-20T17:10:11.476Z,18.10
2017-08-20T17:12:38.955Z,17.90
2017-08-20T17:15:06.382Z,17.70
2017-08-20T17:17:33.826Z,17.60
2017-08-20T17:20:01.294Z,17.60
2017-08-20T17:22:28.763Z,17.40
2017-08-20T17:24:56.201Z,17.30
2017-08-20T17:27:23.644Z,17.20
2017-08-20T17:29:51.127Z,17.10
2017-08-20T17:32:18.643Z,17.00
2017-08-20T17:34:46.079Z,16.90
2017-08-20T17:37:13.525Z,16.90
2017-08-20T17:39:41.055Z,16.90
2017-08-20T17:42:08.492Z,16.70
2017-08-20T17:44:35.931Z,16.70
2017-08-20T17:47:03.422Z,16.60
2017-08-20T17:49:30.874Z,16.60
2017-08-20T17:51:58.344Z,16.60
2017-08-20T17:54:25.798Z,16.50
2017-08-20T17:56:53.253Z,16.40
2017-08-20T17:59:20.708Z,16.30
2017-08-20T18:01:48.146Z,16.30
2017-08-20T18:04:15.618Z,16.30
2017-08-20T18:06:43.190Z,16.30
2017-08-20T18:09:10.731Z,16.30
2017-08-20T18:11:38.191Z,16.20
2017-08-20T18:14:05.642Z,16.20
2017-08-20T18:16:33.110Z,16.20
2017-08-20T18:19:00.558Z,16.00
2017-08-20T18:21:27.999Z,16.00
2017-08-20T18:23:55.497Z,15.90
2017-08-20T18:26:23.030Z,15.80
2017-08-20T18:28:50.493Z,15.90
2017-08-20T18:31:17.955Z,15.80
2017-08-20T18:33:45.396Z,15.80
2017-08-20T18:36:12.836Z,15.80
2017-08-20T18:38:40.323Z,15.80
2017-08-20T18:41:07.776Z,15.80
2017-08-20T18:43:35.335Z,15.80
2017-08-20T18:46:02.786Z,15.80
2017-08-20T18:48:30.326Z,15.80
2017-08-20T18:50:57.765Z,15.70
2017-08-20T18:53:25.199Z,15.70
2017-08-20T18:55:53.412Z,15.70
2017-08-20T18:58:20.865Z,15.70
2017-08-20T19:00:48.322Z,15.80
2017-08-20T19:03:15.772Z,15.80
2017-08-20T19:05:43.205Z,15.80
2017-08-20T19:08:10.707Z,15.80
2017-08-20T19:10:38.167Z,15.70
2017-08-20T19:13:05.614Z,15.60
2017-08-20T19:15:33.078Z,15.60
2017-08-20T19:18:00.526Z,15.50
2017-08-20T19:20:28.003Z,15.50
2017-08-20T19:22:55.552Z,15.40
2017-08-20T19:25:23.006Z,15.40
2017-08-20T19:27:50.464Z,15.40
2017-08-20T19:30:17.910Z,15.30
2017-08-20T19:32:45.378Z,15.30
2017-08-20T19:35:12.946Z,15.30
2017-08-20T19:37:40.407Z,15.40
2017-08-20T19:40:07.837Z,15.40
2017-08-20T19:42:35.270Z,15.30
2017-08-20T19:45:02.761Z,15.20
2017-08-20T19:47:30.230Z,15.20
2017-08-20T19:49:57.770Z,15.20
2017-08-20T19:52:25.243Z,15.20
2017-08-20T19:54:52.715Z,15.20
2017-08-20T19:57:20.175Z,15.10
2017-08-20T19:59:47.624Z,15.10
2017-08-20T20:02:15.066Z,15.00
2017-08-20T20:04:42.742Z,15.00
2017-08-20T20:07:10.166Z,15.00
2017-08-20T20:09:37.632Z,15.00
2017-08-20T20:12:05.086Z,14.90
2017-08-20T20:14:32.519Z,14.90
2017-08-20T20:16:59.951Z,14.90
2017-08-20T20:19:27.397Z,14.80
2017-08-20T20:21:55.613Z,14.70
2017-08-20T20:24:23.101Z,14.70
2017-08-20T20:26:50.538Z,14.70
2017-08-20T20:29:17.977Z,14.70
2017-08-20T20:31:45.454Z,14.60
2017-08-20T20:34:12.914Z,14.60
2017-08-20T20:36:40.361Z,14.60
2017-08-20T20:39:07.856Z,14.60
2017-08-20T20:41:35.328Z,14.60
2017-08-20T20:44:02.768Z,14.60
2017-08-20T20:46:30.238Z,14.50
2017-08-20T20:48:57.683Z,14.50
2017-08-20T20:51:25.914Z,14.50
2017-08-20T20:53:53.388Z,14.50
2017-08-20T20:56:20.832Z,14.50
2017-08-20T20:58:48.287Z,14.50
2017-08-20T21:01:15.723Z,14.50
2017-08-20T21:03:43.196Z,14.50
2017-08-20T21:06:10.650Z,14.50
2017-08-20T21:08:38.091Z,14.50
2017-08-20T21:11:05.526Z,14.50
2017-08-20T21:13:32.971Z,14.50
2017-08-20T21:16:01.166Z,14.50
2017-08-20T21:18:28.626Z,14.40
2017-08-20T21:20:56.114Z,14.40
2017-08-20T21:23:23.682Z,14.40
2017-08-20T21:25:51.230Z,14.40
2017-08-20T21:28:18.701Z,14.50
2017-08-20T21:30:46.124Z,14.50
2017-08-20T21:33:13.609Z,14.50
2017-08-20T21:35:41.260Z,14.50
2017-08-20T21:38:09.358Z,14.50
2017-08-20T21:40:37.140Z,14.50
2017-08-20T21:43:05.335Z,14.50
2017-08-20T21:45:32.784Z,14.40
2017-08-20T21:48:00.210Z,14.40
2017-08-20T21:50:27.648Z,14.40
2017-08-20T21:52:55.080Z,14.40
2017-08-20T21:55:22.518Z,14.40
2017-08-20T21:57:49.960Z,14.40
2017-08-20T22:00:17.459Z,14.40
2017-08-20T22:02:44.899Z,14.50
2017-08-20T22:05:12.371Z,14.40
2017-08-20T22:07:39.818Z,14.50
2017-08-20T22:10:07.287Z,14.40
2017-08-20T22:12:34.715Z,14.40
2017-08-20T22:15:02.202Z,14.40
2017-08-20T22:17:29.662Z,14.40
2017-08-20T22:19:57.119Z,14.40
2017-08-20T22:22:24.563Z,14.40
2017-08-20T22:24:52.058Z,14.40
2017-08-20T22:27:19.510Z,14.40
2017-08-20T22:29:47.741Z,14.40
2017-08-20T22:32:15.226Z,14.30
2017-08-20T22:34:42.663Z,14.30
2017-08-20T22:37:10.135Z,14.30
2017-08-20T22:39:37.570Z,14.30
2017-08-20T22:42:05.023Z,14.20
2017-08-20T22:44:32.454Z,14.20
2017-08-20T22:46:59.947Z,14.20
2017-08-20T22:49:27.420Z,14.10
2017-08-20T22:51:54.871Z,14.10
2017-08-20T22:54:22.324Z,14.20
2017-08-20T22:56:49.802Z,14.10
2017-08-20T22:59:17.238Z,14.10
2017-08-20T23:01:44.692Z,14.10
2017-08-20T23:04:12.126Z,14.10
2017-08-20T23:06:39.590Z,14.10
2017-08-20T23:09:07.026Z,14.10
2017-08-20T23:11:34.467Z,14.10
2017-08-20T23:14:01.976Z,14.10
2017-08-20T23:16:29.415Z,14.10
2017-08-20T23:18:56.953Z,14.10
2017-08-20T23:21:24.376Z,14.00
2017-08-20T23:23:52.581Z,14.00
2017-08-20T23:26:20.021Z,13.90
2017-08-20T23:28:47.459Z,13.90
2017-08-20T23:31:15.660Z,13.90
2017-08-20T23:33:43.098Z,13.90
2017-08-20T23:36:11.332Z,14.00
2017-08-20T23:38:38.780Z,13.90
2017-08-20T23:41:06.222Z,14.00
2017-08-20T23:43:33.691Z,13.90
2017-08-20T23:46:01.155Z,14.00
2017-08-20T23:48:28.595Z,14.00
2017-08-20T23:50:56.062Z,14.00
2017-08-20T23:53:23.499Z,14.00
2017-08-20T23:55:50.943Z,14.00
2017-08-20T23:58:18.382Z,14.10
